sensor_id;sensor_type;location;lat;lon;timestamp;temperature;humidity
52979;DHT22;63430;53.186;6.598;2024-01-11T00:01:02;16.60;38.90
52979;DHT22;63430;53.186;6.598;2024-01-11T00:03:05;16.60;38.90
52979;DHT22;63430;53.186;6.598;2024-01-11T00:05:09;16.60;39.00
52979;DHT22;63430;53.186;6.598;2024-01-11T00:07:12;16.60;38.80
52979;DHT22;63430;53.186;6.598;2024-01-11T00:09:14;16.60;38.80
52979;DHT22;63430;53.186;6.598;2024-01-11T00:11:19;16.60;38.80
52979;DHT22;63430;53.186;6.598;2024-01-11T00:13:22;16.60;38.90
52979;DHT22;63430;53.186;6.598;2024-01-11T00:15:24;16.60;38.70
52979;DHT22;63430;53.186;6.598;2024-01-11T00:17:27;16.60;38.80
52979;DHT22;63430;53.186;6.598;2024-01-11T00:19:30;16.60;38.80
52979;DHT22;63430;53.186;6.598;2024-01-11T00:21:34;16.60;38.80
52979;DHT22;63430;53.186;6.598;2024-01-11T00:23:39;16.60;38.70
52979;DHT22;63430;53.186;6.598;2024-01-11T00:25:42;16.60;38.80
52979;DHT22;63430;53.186;6.598;2024-01-11T00:27:47;16.60;38.80
52979;DHT22;63430;53.186;6.598;2024-01-11T00:29:51;16.60;38.70
52979;DHT22;63430;53.186;6.598;2024-01-11T00:31:53;16.60;38.80
52979;DHT22;63430;53.186;6.598;2024-01-11T00:33:56;16.60;38.80
52979;DHT22;63430;53.186;6.598;2024-01-11T00:35:59;16.60;38.70
52979;DHT22;63430;53.186;6.598;2024-01-11T00:38:01;16.60;38.80
52979;DHT22;63430;53.186;6.598;2024-01-11T00:40:05;16.60;38.80
52979;DHT22;63430;53.186;6.598;2024-01-11T00:42:08;16.60;38.70
52979;DHT22;63430;53.186;6.598;2024-01-11T00:44:15;16.60;38.80
52979;DHT22;63430;53.186;6.598;2024-01-11T00:46:18;16.60;38.80
52979;DHT22;63430;53.186;6.598;2024-01-11T00:48:20;16.60;38.80
52979;DHT22;63430;53.186;6.598;2024-01-11T00:50:23;16.60;38.50
52979;DHT22;63430;53.186;6.598;2024-01-11T00:52:25;16.60;38.50
52979;DHT22;63430;53.186;6.598;2024-01-11T00:54:28;16.60;38.70
52979;DHT22;63430;53.186;6.598;2024-01-11T00:56:30;16.60;38.70
52979;DHT22;63430;53.186;6.598;2024-01-11T00:58:33;16.60;38.60
52979;DHT22;63430;53.186;6.598;2024-01-11T01:00:38;16.60;38.70
52979;DHT22;63430;53.186;6.598;2024-01-11T01:02:41;16.60;38.60
52979;DHT22;63430;53.186;6.598;2024-01-11T01:04:43;16.60;38.60
52979;DHT22;63430;53.186;6.598;2024-01-11T01:06:46;16.60;38.40
52979;DHT22;63430;53.186;6.598;2024-01-11T01:08:48;16.60;38.60
52979;DHT22;63430;53.186;6.598;2024-01-11T01:10:51;16.60;38.60
52979;DHT22;63430;53.186;6.598;2024-01-11T01:12:56;16.60;38.40
52979;DHT22;63430;53.186;6.598;2024-01-11T01:14:58;16.60;38.60
52979;DHT22;63430;53.186;6.598;2024-01-11T01:17:04;16.60;38.50
52979;DHT22;63430;53.186;6.598;2024-01-11T01:19:06;16.60;38.50
52979;DHT22;63430;53.186;6.598;2024-01-11T01:21:12;16.60;38.50
52979;DHT22;63430;53.186;6.598;2024-01-11T01:23:15;16.60;38.50
52979;DHT22;63430;53.186;6.598;2024-01-11T01:25:17;16.60;38.50
52979;DHT22;63430;53.186;6.598;2024-01-11T01:27:19;16.60;38.50
52979;DHT22;63430;53.186;6.598;2024-01-11T01:29:22;16.60;38.50
52979;DHT22;63430;53.186;6.598;2024-01-11T01:31:24;16.60;38.50
52979;DHT22;63430;53.186;6.598;2024-01-11T01:33:29;16.60;38.50
52979;DHT22;63430;53.186;6.598;2024-01-11T01:35:32;16.60;38.40
52979;DHT22;63430;53.186;6.598;2024-01-11T01:37:36;16.60;38.30
52979;DHT22;63430;53.186;6.598;2024-01-11T01:39:39;16.60;38.40
52979;DHT22;63430;53.186;6.598;2024-01-11T01:42:02;16.60;38.50
52979;DHT22;63430;53.186;6.598;2024-01-11T01:44:05;16.60;38.30
52979;DHT22;63430;53.186;6.598;2024-01-11T01:46:28;16.60;38.90
52979;DHT22;63430;53.186;6.598;2024-01-11T01:48:33;16.60;38.50
52979;DHT22;63430;53.186;6.598;2024-01-11T01:50:36;16.60;38.50
52979;DHT22;63430;53.186;6.598;2024-01-11T01:52:40;16.60;38.50
52979;DHT22;63430;53.186;6.598;2024-01-11T01:54:43;16.60;38.40
52979;DHT22;63430;53.186;6.598;2024-01-11T01:56:46;16.60;38.40
52979;DHT22;63430;53.186;6.598;2024-01-11T01:58:51;16.70;38.50
52979;DHT22;63430;53.186;6.598;2024-01-11T02:00:54;16.60;38.40
52979;DHT22;63430;53.186;6.598;2024-01-11T02:02:56;16.60;38.40
52979;DHT22;63430;53.186;6.598;2024-01-11T02:05:03;16.60;38.30
52979;DHT22;63430;53.186;6.598;2024-01-11T02:07:06;16.60;38.40
52979;DHT22;63430;53.186;6.598;2024-01-11T02:09:10;16.60;38.30
52979;DHT22;63430;53.186;6.598;2024-01-11T02:11:13;16.60;38.40
52979;DHT22;63430;53.186;6.598;2024-01-11T02:13:16;16.60;38.40
52979;DHT22;63430;53.186;6.598;2024-01-11T02:15:19;16.60;38.40
52979;DHT22;63430;53.186;6.598;2024-01-11T02:17:21;16.60;38.40
52979;DHT22;63430;53.186;6.598;2024-01-11T02:19:24;16.60;38.30
52979;DHT22;63430;53.186;6.598;2024-01-11T02:21:30;16.60;38.40
52979;DHT22;63430;53.186;6.598;2024-01-11T02:23:36;16.60;38.40
52979;DHT22;63430;53.186;6.598;2024-01-11T02:25:50;16.60;38.20
52979;DHT22;63430;53.186;6.598;2024-01-11T02:27:53;16.60;38.40
52979;DHT22;63430;53.186;6.598;2024-01-11T02:29:55;16.60;38.30
52979;DHT22;63430;53.186;6.598;2024-01-11T02:31:59;16.60;38.20
52979;DHT22;63430;53.186;6.598;2024-01-11T02:34:02;16.60;38.30
52979;DHT22;63430;53.186;6.598;2024-01-11T02:36:05;16.60;38.20
52979;DHT22;63430;53.186;6.598;2024-01-11T02:38:08;16.60;38.20
52979;DHT22;63430;53.186;6.598;2024-01-11T02:40:13;16.60;38.30
52979;DHT22;63430;53.186;6.598;2024-01-11T02:42:18;16.60;38.30
52979;DHT22;63430;53.186;6.598;2024-01-11T02:44:21;16.60;38.20
52979;DHT22;63430;53.186;6.598;2024-01-11T02:46:23;16.60;38.30
52979;DHT22;63430;53.186;6.598;2024-01-11T02:48:27;16.60;38.20
52979;DHT22;63430;53.186;6.598;2024-01-11T02:50:31;16.60;38.10
52979;DHT22;63430;53.186;6.598;2024-01-11T02:52:33;16.60;38.30
52979;DHT22;63430;53.186;6.598;2024-01-11T02:54:36;16.70;38.30
52979;DHT22;63430;53.186;6.598;2024-01-11T02:56:38;16.60;38.30
52979;DHT22;63430;53.186;6.598;2024-01-11T02:58:43;16.60;38.10
52979;DHT22;63430;53.186;6.598;2024-01-11T03:00:46;16.60;38.30
52979;DHT22;63430;53.186;6.598;2024-01-11T03:02:48;16.60;38.30
52979;DHT22;63430;53.186;6.598;2024-01-11T03:04:51;16.60;38.30
52979;DHT22;63430;53.186;6.598;2024-01-11T03:06:53;16.60;38.30
52979;DHT22;63430;53.186;6.598;2024-01-11T03:08:58;16.60;38.30
52979;DHT22;63430;53.186;6.598;2024-01-11T03:11:01;16.60;38.40
52979;DHT22;63430;53.186;6.598;2024-01-11T03:13:24;16.60;38.40
52979;DHT22;63430;53.186;6.598;2024-01-11T03:15:29;16.60;38.90
52979;DHT22;63430;53.186;6.598;2024-01-11T03:17:31;16.60;38.40
52979;DHT22;63430;53.186;6.598;2024-01-11T03:19:39;16.60;38.40
52979;DHT22;63430;53.186;6.598;2024-01-11T03:21:43;16.60;38.20
52979;DHT22;63430;53.186;6.598;2024-01-11T03:23:46;16.60;38.20
52979;DHT22;63430;53.186;6.598;2024-01-11T03:25:49;16.60;38.10
52979;DHT22;63430;53.186;6.598;2024-01-11T03:27:51;16.60;38.20
52979;DHT22;63430;53.186;6.598;2024-01-11T03:29:53;16.60;38.30
52979;DHT22;63430;53.186;6.598;2024-01-11T03:31:59;16.60;38.30
52979;DHT22;63430;53.186;6.598;2024-01-11T03:34:01;16.60;38.30
52979;DHT22;63430;53.186;6.598;2024-01-11T03:36:07;16.60;38.30
52979;DHT22;63430;53.186;6.598;2024-01-11T03:38:10;16.60;38.20
52979;DHT22;63430;53.186;6.598;2024-01-11T03:40:13;16.60;38.30
52979;DHT22;63430;53.186;6.598;2024-01-11T03:42:16;16.60;38.20
52979;DHT22;63430;53.186;6.598;2024-01-11T03:44:19;16.60;38.30
52979;DHT22;63430;53.186;6.598;2024-01-11T03:46:22;16.60;38.10
52979;DHT22;63430;53.186;6.598;2024-01-11T03:48:28;16.60;38.40
52979;DHT22;63430;53.186;6.598;2024-01-11T03:50:31;16.60;38.20
52979;DHT22;63430;53.186;6.598;2024-01-11T03:52:33;16.60;38.40
52979;DHT22;63430;53.186;6.598;2024-01-11T03:54:36;16.60;38.30
52979;DHT22;63430;53.186;6.598;2024-01-11T03:56:58;16.60;38.30
52979;DHT22;63430;53.186;6.598;2024-01-11T03:59:01;16.60;38.30
52979;DHT22;63430;53.186;6.598;2024-01-11T04:01:03;16.60;38.20
52979;DHT22;63430;53.186;6.598;2024-01-11T04:03:06;16.60;38.30
52979;DHT22;63430;53.186;6.598;2024-01-11T04:05:12;16.60;38.30
52979;DHT22;63430;53.186;6.598;2024-01-11T04:07:17;16.60;38.20
52979;DHT22;63430;53.186;6.598;2024-01-11T04:09:20;16.60;38.30
52979;DHT22;63430;53.186;6.598;2024-01-11T04:11:22;16.60;38.20
52979;DHT22;63430;53.186;6.598;2024-01-11T04:13:25;16.60;38.40
52979;DHT22;63430;53.186;6.598;2024-01-11T04:15:47;16.60;38.20
52979;DHT22;63430;53.186;6.598;2024-01-11T04:17:50;16.60;38.30
52979;DHT22;63430;53.186;6.598;2024-01-11T04:19:52;16.60;38.40
52979;DHT22;63430;53.186;6.598;2024-01-11T04:22:00;16.60;38.30
52979;DHT22;63430;53.186;6.598;2024-01-11T04:24:02;16.70;38.30
52979;DHT22;63430;53.186;6.598;2024-01-11T04:26:05;16.70;38.30
52979;DHT22;63430;53.186;6.598;2024-01-11T04:28:07;16.60;38.30
52979;DHT22;63430;53.186;6.598;2024-01-11T04:30:12;16.70;38.40
52979;DHT22;63430;53.186;6.598;2024-01-11T04:32:15;16.60;38.30
52979;DHT22;63430;53.186;6.598;2024-01-11T04:34:17;16.60;38.30
52979;DHT22;63430;53.186;6.598;2024-01-11T04:36:20;16.60;38.20
52979;DHT22;63430;53.186;6.598;2024-01-11T04:38:25;16.60;38.30
52979;DHT22;63430;53.186;6.598;2024-01-11T04:40:27;16.60;38.30
52979;DHT22;63430;53.186;6.598;2024-01-11T04:42:30;16.60;38.40
52979;DHT22;63430;53.186;6.598;2024-01-11T04:44:33;16.60;38.20
52979;DHT22;63430;53.186;6.598;2024-01-11T04:46:35;16.60;38.20
52979;DHT22;63430;53.186;6.598;2024-01-11T04:48:38;16.60;38.30
52979;DHT22;63430;53.186;6.598;2024-01-11T04:50:40;16.70;38.30
52979;DHT22;63430;53.186;6.598;2024-01-11T04:52:43;16.60;38.30
52979;DHT22;63430;53.186;6.598;2024-01-11T04:54:48;16.70;38.40
52979;DHT22;63430;53.186;6.598;2024-01-11T04:56:50;16.70;38.30
52979;DHT22;63430;53.186;6.598;2024-01-11T04:58:53;16.70;38.30
52979;DHT22;63430;53.186;6.598;2024-01-11T05:01:16;16.70;38.20
52979;DHT22;63430;53.186;6.598;2024-01-11T05:03:19;16.70;38.30
52979;DHT22;63430;53.186;6.598;2024-01-11T05:05:22;16.70;38.20
52979;DHT22;63430;53.186;6.598;2024-01-11T05:07:25;16.70;38.20
52979;DHT22;63430;53.186;6.598;2024-01-11T05:09:29;16.70;38.20
52979;DHT22;63430;53.186;6.598;2024-01-11T05:11:34;16.70;38.20
52979;DHT22;63430;53.186;6.598;2024-01-11T05:13:56;16.70;38.40
52979;DHT22;63430;53.186;6.598;2024-01-11T05:16:00;16.70;38.30
52979;DHT22;63430;53.186;6.598;2024-01-11T05:18:03;16.70;39.00
52979;DHT22;63430;53.186;6.598;2024-01-11T05:20:07;16.70;38.20
52979;DHT22;63430;53.186;6.598;2024-01-11T05:22:12;16.70;38.30
52979;DHT22;63430;53.186;6.598;2024-01-11T05:24:14;16.70;38.30
52979;DHT22;63430;53.186;6.598;2024-01-11T05:26:17;16.70;38.30
52979;DHT22;63430;53.186;6.598;2024-01-11T05:28:23;16.70;38.30
52979;DHT22;63430;53.186;6.598;2024-01-11T05:30:25;16.70;38.40
52979;DHT22;63430;53.186;6.598;2024-01-11T05:32:32;16.70;38.20
52979;DHT22;63430;53.186;6.598;2024-01-11T05:34:34;16.70;38.10
52979;DHT22;63430;53.186;6.598;2024-01-11T05:36:37;16.70;38.20
52979;DHT22;63430;53.186;6.598;2024-01-11T05:38:40;16.70;38.20
52979;DHT22;63430;53.186;6.598;2024-01-11T05:40:43;16.80;38.20
52979;DHT22;63430;53.186;6.598;2024-01-11T05:42:45;16.80;38.20
52979;DHT22;63430;53.186;6.598;2024-01-11T05:44:51;16.80;38.20
52979;DHT22;63430;53.186;6.598;2024-01-11T05:46:53;16.80;38.50
52979;DHT22;63430;53.186;6.598;2024-01-11T05:48:56;16.70;38.80
52979;DHT22;63430;53.186;6.598;2024-01-11T05:50:59;16.70;39.20
52979;DHT22;63430;53.186;6.598;2024-01-11T05:53:02;16.70;39.30
52979;DHT22;63430;53.186;6.598;2024-01-11T05:55:05;16.70;39.50
52979;DHT22;63430;53.186;6.598;2024-01-11T05:57:07;16.70;39.60
52979;DHT22;63430;53.186;6.598;2024-01-11T05:59:10;16.70;39.60
52979;DHT22;63430;53.186;6.598;2024-01-11T06:01:40;16.60;39.60
52979;DHT22;63430;53.186;6.598;2024-01-11T06:03:43;16.60;39.80
52979;DHT22;63430;53.186;6.598;2024-01-11T06:05:46;16.60;39.80
52979;DHT22;63430;53.186;6.598;2024-01-11T06:07:49;16.60;39.90
52979;DHT22;63430;53.186;6.598;2024-01-11T06:09:51;16.60;40.00
52979;DHT22;63430;53.186;6.598;2024-01-11T06:11:53;16.60;40.20
52979;DHT22;63430;53.186;6.598;2024-01-11T06:13:56;16.60;40.50
52979;DHT22;63430;53.186;6.598;2024-01-11T06:15:59;16.60;41.00
52979;DHT22;63430;53.186;6.598;2024-01-11T06:18:05;16.60;41.00
52979;DHT22;63430;53.186;6.598;2024-01-11T06:20:08;16.60;41.60
52979;DHT22;63430;53.186;6.598;2024-01-11T06:22:13;16.60;41.60
52979;DHT22;63430;53.186;6.598;2024-01-11T06:24:16;16.60;41.90
52979;DHT22;63430;53.186;6.598;2024-01-11T06:26:18;16.60;41.80
52979;DHT22;63430;53.186;6.598;2024-01-11T06:28:21;16.70;42.00
52979;DHT22;63430;53.186;6.598;2024-01-11T06:30:23;16.70;42.00
52979;DHT22;63430;53.186;6.598;2024-01-11T06:32:26;16.70;42.00
52979;DHT22;63430;53.186;6.598;2024-01-11T06:34:31;16.70;42.20
52979;DHT22;63430;53.186;6.598;2024-01-11T06:36:33;16.70;42.40
52979;DHT22;63430;53.186;6.598;2024-01-11T06:38:36;16.70;42.60
52979;DHT22;63430;53.186;6.598;2024-01-11T06:40:39;16.70;42.60
52979;DHT22;63430;53.186;6.598;2024-01-11T06:42:41;16.70;42.50
52979;DHT22;63430;53.186;6.598;2024-01-11T06:44:44;16.80;42.60
52979;DHT22;63430;53.186;6.598;2024-01-11T06:46:46;16.80;42.50
52979;DHT22;63430;53.186;6.598;2024-01-11T06:49:09;16.80;42.50
52979;DHT22;63430;53.186;6.598;2024-01-11T06:51:20;16.80;42.60
52979;DHT22;63430;53.186;6.598;2024-01-11T06:53:22;16.80;42.70
52979;DHT22;63430;53.186;6.598;2024-01-11T06:55:25;16.70;42.60
52979;DHT22;63430;53.186;6.598;2024-01-11T06:57:27;16.80;42.60
52979;DHT22;63430;53.186;6.598;2024-01-11T06:59:30;16.80;43.40
52979;DHT22;63430;53.186;6.598;2024-01-11T07:01:32;16.80;44.50
52979;DHT22;63430;53.186;6.598;2024-01-11T07:03:35;16.80;43.50
52979;DHT22;63430;53.186;6.598;2024-01-11T07:05:38;16.80;43.70
52979;DHT22;63430;53.186;6.598;2024-01-11T07:07:43;16.80;43.50
52979;DHT22;63430;53.186;6.598;2024-01-11T07:09:46;16.80;43.40
52979;DHT22;63430;53.186;6.598;2024-01-11T07:11:48;16.80;43.20
52979;DHT22;63430;53.186;6.598;2024-01-11T07:13:51;16.80;42.80
52979;DHT22;63430;53.186;6.598;2024-01-11T07:15:53;16.80;42.70
52979;DHT22;63430;53.186;6.598;2024-01-11T07:17:57;16.90;42.80
52979;DHT22;63430;53.186;6.598;2024-01-11T07:20:01;16.80;42.90
52979;DHT22;63430;53.186;6.598;2024-01-11T07:22:06;16.80;43.10
52979;DHT22;63430;53.186;6.598;2024-01-11T07:24:12;16.80;43.00
52979;DHT22;63430;53.186;6.598;2024-01-11T07:26:14;16.80;43.10
52979;DHT22;63430;53.186;6.598;2024-01-11T07:28:37;16.80;43.10
52979;DHT22;63430;53.186;6.598;2024-01-11T07:30:40;16.90;43.20
52979;DHT22;63430;53.186;6.598;2024-01-11T07:32:42;16.90;43.10
52979;DHT22;63430;53.186;6.598;2024-01-11T07:34:45;16.90;43.10
52979;DHT22;63430;53.186;6.598;2024-01-11T07:36:47;16.90;43.00
52979;DHT22;63430;53.186;6.598;2024-01-11T07:38:50;16.90;43.00
52979;DHT22;63430;53.186;6.598;2024-01-11T07:40:55;17.00;43.00
52979;DHT22;63430;53.186;6.598;2024-01-11T07:42:58;16.90;42.90
52979;DHT22;63430;53.186;6.598;2024-01-11T07:45:00;16.90;42.90
52979;DHT22;63430;53.186;6.598;2024-01-11T07:47:03;17.00;43.00
52979;DHT22;63430;53.186;6.598;2024-01-11T07:49:05;17.00;42.90
52979;DHT22;63430;53.186;6.598;2024-01-11T07:51:08;17.00;42.80
52979;DHT22;63430;53.186;6.598;2024-01-11T07:53:11;17.00;42.70
52979;DHT22;63430;53.186;6.598;2024-01-11T07:55:15;17.00;42.60
52979;DHT22;63430;53.186;6.598;2024-01-11T07:57:21;17.00;42.50
52979;DHT22;63430;53.186;6.598;2024-01-11T07:59:24;17.00;42.50
52979;DHT22;63430;53.186;6.598;2024-01-11T08:01:26;17.00;42.30
52979;DHT22;63430;53.186;6.598;2024-01-11T08:03:29;17.00;42.30
52979;DHT22;63430;53.186;6.598;2024-01-11T08:05:32;17.00;42.10
52979;DHT22;63430;53.186;6.598;2024-01-11T08:07:35;17.00;42.20
52979;DHT22;63430;53.186;6.598;2024-01-11T08:09:37;16.90;42.00
52979;DHT22;63430;53.186;6.598;2024-01-11T08:11:41;17.00;41.90
52979;DHT22;63430;53.186;6.598;2024-01-11T08:13:52;17.00;42.00
52979;DHT22;63430;53.186;6.598;2024-01-11T08:15:57;17.00;41.90
52979;DHT22;63430;53.186;6.598;2024-01-11T08:18:00;17.00;41.70
52979;DHT22;63430;53.186;6.598;2024-01-11T08:20:24;17.00;41.70
52979;DHT22;63430;53.186;6.598;2024-01-11T08:22:26;17.00;41.70
52979;DHT22;63430;53.186;6.598;2024-01-11T08:24:34;17.00;41.60
52979;DHT22;63430;53.186;6.598;2024-01-11T08:26:57;17.00;41.50
52979;DHT22;63430;53.186;6.598;2024-01-11T08:29:02;17.10;41.50
52979;DHT22;63430;53.186;6.598;2024-01-11T08:31:07;17.00;41.20
52979;DHT22;63430;53.186;6.598;2024-01-11T08:33:31;17.00;41.30
52979;DHT22;63430;53.186;6.598;2024-01-11T08:35:34;17.00;41.20
52979;DHT22;63430;53.186;6.598;2024-01-11T08:37:36;17.10;41.30
52979;DHT22;63430;53.186;6.598;2024-01-11T08:39:39;17.00;41.20
52979;DHT22;63430;53.186;6.598;2024-01-11T08:41:44;17.00;41.20
52979;DHT22;63430;53.186;6.598;2024-01-11T08:43:50;17.10;41.20
52979;DHT22;63430;53.186;6.598;2024-01-11T08:45:56;17.00;41.10
52979;DHT22;63430;53.186;6.598;2024-01-11T08:47:58;17.10;41.20
52979;DHT22;63430;53.186;6.598;2024-01-11T08:50:02;17.00;41.10
52979;DHT22;63430;53.186;6.598;2024-01-11T08:52:08;17.00;41.10
52979;DHT22;63430;53.186;6.598;2024-01-11T08:54:12;17.00;41.20
52979;DHT22;63430;53.186;6.598;2024-01-11T08:56:15;17.10;41.20
52979;DHT22;63430;53.186;6.598;2024-01-11T08:58:19;17.10;41.10
52979;DHT22;63430;53.186;6.598;2024-01-11T09:00:42;17.10;41.20
52979;DHT22;63430;53.186;6.598;2024-01-11T09:03:09;17.10;41.10
52979;DHT22;63430;53.186;6.598;2024-01-11T09:05:13;17.10;41.10
52979;DHT22;63430;53.186;6.598;2024-01-11T09:07:16;17.00;41.30
52979;DHT22;63430;53.186;6.598;2024-01-11T09:09:19;17.00;41.00
52979;DHT22;63430;53.186;6.598;2024-01-11T09:11:23;17.00;41.00
52979;DHT22;63430;53.186;6.598;2024-01-11T09:13:26;17.10;41.10
52979;DHT22;63430;53.186;6.598;2024-01-11T09:15:29;17.00;41.00
52979;DHT22;63430;53.186;6.598;2024-01-11T09:17:31;17.00;41.00
52979;DHT22;63430;53.186;6.598;2024-01-11T09:19:37;17.00;41.00
52979;DHT22;63430;53.186;6.598;2024-01-11T09:22:02;17.10;41.10
52979;DHT22;63430;53.186;6.598;2024-01-11T09:24:05;17.00;41.00
52979;DHT22;63430;53.186;6.598;2024-01-11T09:26:12;17.00;41.10
52979;DHT22;63430;53.186;6.598;2024-01-11T09:28:14;17.00;40.90
52979;DHT22;63430;53.186;6.598;2024-01-11T09:30:17;17.00;41.00
52979;DHT22;63430;53.186;6.598;2024-01-11T09:32:40;17.00;41.20
52979;DHT22;63430;53.186;6.598;2024-01-11T09:34:45;17.00;41.20
52979;DHT22;63430;53.186;6.598;2024-01-11T09:36:48;17.00;42.00
52979;DHT22;63430;53.186;6.598;2024-01-11T09:38:50;17.00;41.40
52979;DHT22;63430;53.186;6.598;2024-01-11T09:40:59;17.00;41.40
52979;DHT22;63430;53.186;6.598;2024-01-11T09:43:06;17.10;41.60
52979;DHT22;63430;53.186;6.598;2024-01-11T09:45:13;17.10;41.60
52979;DHT22;63430;53.186;6.598;2024-01-11T09:47:16;17.10;41.70
52979;DHT22;63430;53.186;6.598;2024-01-11T09:49:22;17.10;41.80
52979;DHT22;63430;53.186;6.598;2024-01-11T09:51:29;17.10;41.90
52979;DHT22;63430;53.186;6.598;2024-01-11T09:53:33;17.20;42.10
52979;DHT22;63430;53.186;6.598;2024-01-11T09:55:36;17.10;42.10
52979;DHT22;63430;53.186;6.598;2024-01-11T09:57:42;17.10;42.10
52979;DHT22;63430;53.186;6.598;2024-01-11T09:59:46;17.10;41.80
52979;DHT22;63430;53.186;6.598;2024-01-11T10:01:51;17.10;42.00
52979;DHT22;63430;53.186;6.598;2024-01-11T10:03:53;17.20;41.70
52979;DHT22;63430;53.186;6.598;2024-01-11T10:05:58;17.20;41.60
52979;DHT22;63430;53.186;6.598;2024-01-11T10:08:04;17.20;41.50
52979;DHT22;63430;53.186;6.598;2024-01-11T10:10:09;17.20;41.40
52979;DHT22;63430;53.186;6.598;2024-01-11T10:12:11;17.20;41.40
52979;DHT22;63430;53.186;6.598;2024-01-11T10:14:14;17.20;41.20
52979;DHT22;63430;53.186;6.598;2024-01-11T10:16:37;17.20;41.10
52979;DHT22;63430;53.186;6.598;2024-01-11T10:18:39;17.30;41.20
52979;DHT22;63430;53.186;6.598;2024-01-11T10:21:02;17.30;41.20
52979;DHT22;63430;53.186;6.598;2024-01-11T10:23:08;17.30;41.20
52979;DHT22;63430;53.186;6.598;2024-01-11T10:25:12;17.30;41.30
52979;DHT22;63430;53.186;6.598;2024-01-11T10:27:16;17.30;41.30
52979;DHT22;63430;53.186;6.598;2024-01-11T10:29:18;17.30;41.30
52979;DHT22;63430;53.186;6.598;2024-01-11T10:31:23;17.20;41.20
52979;DHT22;63430;53.186;6.598;2024-01-11T10:33:29;17.30;41.20
52979;DHT22;63430;53.186;6.598;2024-01-11T10:35:32;17.30;41.30
52979;DHT22;63430;53.186;6.598;2024-01-11T10:37:37;17.30;41.20
52979;DHT22;63430;53.186;6.598;2024-01-11T10:39:43;17.20;41.30
52979;DHT22;63430;53.186;6.598;2024-01-11T10:41:49;17.20;41.30
52979;DHT22;63430;53.186;6.598;2024-01-11T10:43:54;17.20;41.20
52979;DHT22;63430;53.186;6.598;2024-01-11T10:45:59;17.30;41.30
52979;DHT22;63430;53.186;6.598;2024-01-11T10:48:07;17.30;41.40
52979;DHT22;63430;53.186;6.598;2024-01-11T10:50:10;17.30;41.30
52979;DHT22;63430;53.186;6.598;2024-01-11T10:52:14;17.30;41.30
52979;DHT22;63430;53.186;6.598;2024-01-11T10:54:17;17.30;41.30
52979;DHT22;63430;53.186;6.598;2024-01-11T10:56:26;17.30;41.20
52979;DHT22;63430;53.186;6.598;2024-01-11T10:58:30;17.30;41.40
52979;DHT22;63430;53.186;6.598;2024-01-11T11:00:34;17.20;41.20
52979;DHT22;63430;53.186;6.598;2024-01-11T11:02:38;17.20;41.20
52979;DHT22;63430;53.186;6.598;2024-01-11T11:04:42;17.20;41.40
52979;DHT22;63430;53.186;6.598;2024-01-11T11:06:45;17.20;41.40
52979;DHT22;63430;53.186;6.598;2024-01-11T11:08:49;17.10;41.30
52979;DHT22;63430;53.186;6.598;2024-01-11T11:10:55;17.20;41.50
52979;DHT22;63430;53.186;6.598;2024-01-11T11:13:03;17.10;41.50
52979;DHT22;63430;53.186;6.598;2024-01-11T11:15:09;17.20;41.60
52979;DHT22;63430;53.186;6.598;2024-01-11T11:17:11;17.10;41.60
52979;DHT22;63430;53.186;6.598;2024-01-11T11:19:17;17.10;41.80
52979;DHT22;63430;53.186;6.598;2024-01-11T11:21:21;17.10;41.80
52979;DHT22;63430;53.186;6.598;2024-01-11T11:23:24;17.10;41.80
52979;DHT22;63430;53.186;6.598;2024-01-11T11:25:47;17.10;42.10
52979;DHT22;63430;53.186;6.598;2024-01-11T11:27:55;17.10;42.10
52979;DHT22;63430;53.186;6.598;2024-01-11T11:30:03;17.10;42.50
52979;DHT22;63430;53.186;6.598;2024-01-11T11:32:06;17.10;42.60
52979;DHT22;63430;53.186;6.598;2024-01-11T11:34:11;17.20;43.50
52979;DHT22;63430;53.186;6.598;2024-01-11T11:36:17;17.20;43.50
52979;DHT22;63430;53.186;6.598;2024-01-11T11:38:21;17.20;43.50
52979;DHT22;63430;53.186;6.598;2024-01-11T11:40:32;17.20;43.70
52979;DHT22;63430;53.186;6.598;2024-01-11T11:42:36;17.30;43.70
52979;DHT22;63430;53.186;6.598;2024-01-11T11:44:48;17.30;43.50
52979;DHT22;63430;53.186;6.598;2024-01-11T11:46:55;17.30;44.10
52979;DHT22;63430;53.186;6.598;2024-01-11T11:48:57;17.30;43.50
52979;DHT22;63430;53.186;6.598;2024-01-11T11:51:06;17.30;44.00
52979;DHT22;63430;53.186;6.598;2024-01-11T11:53:11;17.30;43.90
52979;DHT22;63430;53.186;6.598;2024-01-11T11:55:14;17.30;43.60
52979;DHT22;63430;53.186;6.598;2024-01-11T11:57:17;17.40;44.00
52979;DHT22;63430;53.186;6.598;2024-01-11T11:59:20;17.40;44.00
52979;DHT22;63430;53.186;6.598;2024-01-11T12:01:43;17.30;43.90
52979;DHT22;63430;53.186;6.598;2024-01-11T12:03:49;17.30;43.90
52979;DHT22;63430;53.186;6.598;2024-01-11T12:05:52;17.40;44.00
52979;DHT22;63430;53.186;6.598;2024-01-11T12:07:55;17.30;43.90
52979;DHT22;63430;53.186;6.598;2024-01-11T12:09:58;17.40;43.90
52979;DHT22;63430;53.186;6.598;2024-01-11T12:12:00;17.40;44.00
52979;DHT22;63430;53.186;6.598;2024-01-11T12:14:16;17.40;43.90
52979;DHT22;63430;53.186;6.598;2024-01-11T12:16:19;17.40;43.70
52979;DHT22;63430;53.186;6.598;2024-01-11T12:18:22;17.40;43.90
52979;DHT22;63430;53.186;6.598;2024-01-11T12:20:28;17.40;44.00
52979;DHT22;63430;53.186;6.598;2024-01-11T12:22:31;17.40;44.10
52979;DHT22;63430;53.186;6.598;2024-01-11T12:24:34;17.40;43.90
52979;DHT22;63430;53.186;6.598;2024-01-11T12:26:37;17.40;43.90
52979;DHT22;63430;53.186;6.598;2024-01-11T12:28:41;17.40;44.00
52979;DHT22;63430;53.186;6.598;2024-01-11T12:30:46;17.40;43.90
52979;DHT22;63430;53.186;6.598;2024-01-11T12:32:50;17.40;44.30
52979;DHT22;63430;53.186;6.598;2024-01-11T12:35:13;17.40;44.70
52979;DHT22;63430;53.186;6.598;2024-01-11T12:37:20;17.40;44.60
52979;DHT22;63430;53.186;6.598;2024-01-11T12:39:24;17.50;44.40
52979;DHT22;63430;53.186;6.598;2024-01-11T12:41:27;17.50;44.10
52979;DHT22;63430;53.186;6.598;2024-01-11T12:43:33;17.40;44.00
52979;DHT22;63430;53.186;6.598;2024-01-11T12:45:37;17.40;44.30
52979;DHT22;63430;53.186;6.598;2024-01-11T12:47:40;17.40;44.50
52979;DHT22;63430;53.186;6.598;2024-01-11T12:49:43;17.50;44.90
52979;DHT22;63430;53.186;6.598;2024-01-11T12:51:49;17.40;44.40
52979;DHT22;63430;53.186;6.598;2024-01-11T12:54:14;17.40;44.30
52979;DHT22;63430;53.186;6.598;2024-01-11T12:56:18;17.40;44.10
52979;DHT22;63430;53.186;6.598;2024-01-11T12:58:24;17.50;43.90
52979;DHT22;63430;53.186;6.598;2024-01-11T13:00:29;17.50;43.90
52979;DHT22;63430;53.186;6.598;2024-01-11T13:02:31;17.50;43.90
52979;DHT22;63430;53.186;6.598;2024-01-11T13:04:34;17.50;44.10
52979;DHT22;63430;53.186;6.598;2024-01-11T13:06:56;17.50;43.90
52979;DHT22;63430;53.186;6.598;2024-01-11T13:08:59;17.50;44.10